Saturday, January 20, 2018, 8:19 AM EST
Back to Local

KPIT, Greater Pittsburgh International

Location: Coraopolis, PA, United States Lat: 40.483
Local Time: 8:19 AM EST (13:19 GMT) Lon: -80.233
Time Zone: US/Eastern Elev: 1204 ft

Show me the last for .
Show Coded

Time T Td Feel RH Dir Speed Gust Alt SLP Vis Weather Sky Remarks
2018-01-20 07:51 36 23 25 58 220° 14 20 30.00 30.05 10 BKN250 None
2018-01-20 06:51 36 22 25 56 220° 10 20 29.99 30.04 10 SCT250 6-hr Min Temp (7am): 36.0°F
6-hr Max Temp (7am): 37.0°F
2018-01-20 05:51 36 22 28 56 220° 12 - 29.97 30.02 10 BKN250 None
2018-01-20 04:51 37 22 29 53 220° 12 - 29.96 30.01 10 BKN250 None
2018-01-20 03:51 37 21 29 51 220° 12 - 29.96 30.00 10 SCT250 None
2018-01-20 01:51 37 18 26 45 220° 13 23 29.95 30.00 10 FEW250 None
2018-01-20 00:51 37 19 28 47 220° 14 - 29.94 29.99 10 CLR 6-hr Min Temp (1am): 34.0°F
6-hr Max Temp (1am): 37.0°F
2018-01-19 23:51 36 18 27 47 220° 14 - 29.95 30.01 10 CLR 24-hr Min Temp (12am): 21.9°F
24-hr Max Temp (12am): 39.0°F
2018-01-19 22:51 35 17 26 47 210° 13 - 29.97 30.03 10 CLR None
2018-01-19 21:51 34 18 26 51 210° 10 - 29.97 30.03 10 FEW250 None
2018-01-19 20:51 34 18 28 51 200° 7 - 29.98 30.05 10 CLR None
2018-01-19 19:51 35 18 29 49 210° 7 - 30.00 30.06 10 FEW250 None
2018-01-19 18:51 36 18 30 47 210° 8 - 30.00 30.06 10 FEW250 6-hr Min Temp (7pm): 33.1°F
6-hr Max Temp (7pm): 39.0°F
2018-01-19 17:51 37 18 32 45 210° 7 - 30.00 30.06 10 FEW250 None
2018-01-19 16:51 39 17 33 40 220° 9 - 30.00 30.05 10 FEW250 None
2018-01-19 15:51 39 17 32 40 220° 12 - 30.00 30.05 10 FEW250 None
2018-01-19 14:51 37 16 29 41 210° 12 - 30.00 30.06 10 SCT250 None
2018-01-19 13:51 35 16 26 45 220° 14 - 30.02 30.08 10 SCT250 None
2018-01-19 12:51 33 15 24 47 220° 12 - 30.05 30.11 10 SCT250 6-hr Min Temp (1pm): 21.9°F
6-hr Max Temp (1pm): 33.1°F
2018-01-19 11:51 31 14 21 48 200° 13 - 30.07 30.14 10 SCT250 None
2018-01-19 10:51 29 13 20 50 210° 10 - 30.09 30.16 10 SCT250 None
2018-01-19 09:51 26 12 15 54 220° 13 - 30.10 30.17 10 SCT250 None
2018-01-19 08:51 23 11 12 59 210° 10 - 30.10 30.17 10 BKN250 None

Support USWX by starting your Amazon purchase here.